PWSweather.com
Personal Weather Stations
Station Observations
MENWDWX1
Menstrie, ScotlandGB

MenstrieScotlandGB

Lat: 56.148322, Lon: -3.85483

Elevation: 62

Station Type: Davis Vantage Pro 2

High Low Average
Temperature 30.1°F-1.1°C 25.8°F-3.4°C 28.0°F-2.2°C
Dew Point 24.1°F-4.4°C 19.9°F-6.7°C 22.1°F-5.5°C
Winds 25.3 mph 40.7 kmh 5.8 mph 9.3 kmh 16.0 mph E25.7 kmh E
Wind Gusts 36.8 mph59.2 kmh 9.2 mph14.8 kmh 23.0 mph37.0 kmh
Humidity 82% 73% 78%
Pressure 30.22 in1023.4 mb 29.82 in1009.8 mb -
Precipitation 0.04 in1.0 mm - -
Hour Temp Dew Point Humidity Winds Wind Gusts Pressure Precip Precip Rate Daily Precip Total
12:00 AM 26.5°F-3.1°C 20.2°F-6.6°C 77% 18.4 mph ENE29.6 kmh ENE 23.0 mph37.0 kmh 30.22 in1023.4 mb - 0.00 in0.0 mm 0.00 in0.0 mm
12:05 AM 27.0°F-2.8°C 20.4°F-6.4°C 76% 13.8 mph ENE22.2 kmh ENE 24.2 mph38.9 kmh 30.22 in1023.4 mb - 0.00 in0.0 mm 0.00 in0.0 mm
12:10 AM 27.2°F-2.7°C 20.3°F-6.5°C 75% 19.6 mph ENE31.5 kmh ENE 28.8 mph46.3 kmh 30.22 in1023.4 mb - 0.00 in0.0 mm 0.00 in0.0 mm
12:15 AM 27.3°F-2.6°C 20.4°F-6.4°C 75% 17.3 mph E27.8 kmh E 21.9 mph35.2 kmh 30.22 in1023.4 mb - 0.00 in0.0 mm 0.00 in0.0 mm
12:20 AM 27.3°F-2.6°C 20.1°F-6.6°C 74% 16.1 mph ENE25.9 kmh ENE 20.7 mph33.3 kmh 30.21 in1023.0 mb - 0.00 in0.0 mm 0.00 in0.0 mm
12:25 AM 27.4°F-2.6°C 20.2°F-6.6°C 74% 17.3 mph ENE27.8 kmh ENE 24.2 mph38.9 kmh 30.21 in1023.0 mb - 0.00 in0.0 mm 0.00 in0.0 mm
12:30 AM 27.2°F-2.7°C 20.3°F-6.5°C 75% 16.1 mph E25.9 kmh E 25.3 mph40.7 kmh 30.21 in1023.0 mb - 0.00 in0.0 mm 0.00 in0.0 mm
12:35 AM 27.4°F-2.6°C 20.5°F-6.4°C 75% 19.6 mph E31.5 kmh E 31.1 mph50.1 kmh 30.21 in1023.0 mb - 0.00 in0.0 mm 0.00 in0.0 mm
12:40 AM 27.6°F-2.4°C 20.4°F-6.4°C 74% 21.9 mph E35.2 kmh E 26.5 mph42.6 kmh 30.21 in1023.0 mb - 0.00 in0.0 mm 0.00 in0.0 mm
12:45 AM 27.8°F-2.3°C 20.3°F-6.5°C 73% 19.6 mph E31.5 kmh E 25.3 mph40.7 kmh 30.20 in1022.7 mb - 0.00 in0.0 mm 0.00 in0.0 mm
12:50 AM 28.0°F-2.2°C 20.5°F-6.4°C 73% 20.7 mph ENE33.3 kmh ENE 24.2 mph38.9 kmh 30.21 in1023.0 mb - 0.00 in0.0 mm 0.00 in0.0 mm
12:55 AM 28.1°F-2.2°C 20.9°F-6.2°C 74% 18.4 mph ENE29.6 kmh ENE 32.2 mph51.8 kmh 30.20 in1022.7 mb - 0.00 in0.0 mm 0.00 in0.0 mm
01:00 AM 28.2°F-2.1°C 21.0°F-6.1°C 74% 17.3 mph ENE27.8 kmh ENE 26.5 mph42.6 kmh 30.20 in1022.7 mb - 0.00 in0.0 mm 0.00 in0.0 mm
01:05 AM 28.1°F-2.2°C 20.9°F-6.2°C 74% 18.4 mph E29.6 kmh E 26.5 mph42.6 kmh 30.20 in1022.7 mb - 0.00 in0.0 mm 0.00 in0.0 mm
01:10 AM 28.1°F-2.2°C 20.6°F-6.3°C 73% 20.7 mph E33.3 kmh E 21.9 mph35.2 kmh 30.20 in1022.7 mb - 0.00 in0.0 mm 0.00 in0.0 mm
01:15 AM 28.2°F-2.1°C 20.7°F-6.3°C 73% 18.4 mph E29.6 kmh E 32.2 mph51.8 kmh 30.20 in1022.7 mb - 0.00 in0.0 mm 0.00 in0.0 mm
01:20 AM 28.0°F-2.2°C 21.1°F-6.1°C 75% 18.4 mph E29.6 kmh E 24.2 mph38.9 kmh 30.20 in1022.7 mb - 0.00 in0.0 mm 0.00 in0.0 mm
01:25 AM 27.4°F-2.6°C 21.1°F-6.1°C 77% 10.4 mph E16.7 kmh E 12.7 mph20.4 kmh 30.20 in1022.7 mb - 0.00 in0.0 mm 0.00 in0.0 mm
01:30 AM 27.3°F-2.6°C 21.0°F-6.1°C 77% 15.0 mph E24.1 kmh E 26.5 mph42.6 kmh 30.20 in1022.7 mb - 0.00 in0.0 mm 0.00 in0.0 mm
01:35 AM 27.4°F-2.6°C 21.1°F-6.1°C 77% 16.1 mph E25.9 kmh E 26.5 mph42.6 kmh 30.20 in1022.7 mb - 0.00 in0.0 mm 0.00 in0.0 mm
01:40 AM 27.8°F-2.3°C 20.9°F-6.2°C 75% 18.4 mph E29.6 kmh E 31.1 mph50.1 kmh 30.19 in1022.4 mb - 0.00 in0.0 mm 0.00 in0.0 mm
01:45 AM 28.0°F-2.2°C 20.8°F-6.2°C 74% 17.3 mph E27.8 kmh E 20.7 mph33.3 kmh 30.19 in1022.4 mb - 0.00 in0.0 mm 0.00 in0.0 mm
01:50 AM 28.1°F-2.2°C 20.6°F-6.3°C 73% 16.1 mph E25.9 kmh E 16.1 mph25.9 kmh 30.19 in1022.4 mb - 0.00 in0.0 mm 0.00 in0.0 mm
01:55 AM 28.1°F-2.2°C 20.6°F-6.3°C 73% 15.0 mph E24.1 kmh E 18.4 mph29.6 kmh 30.19 in1022.4 mb - 0.00 in0.0 mm 0.00 in0.0 mm
02:00 AM 28.1°F-2.2°C 20.6°F-6.3°C 73% 11.5 mph E18.5 kmh E 19.6 mph31.5 kmh 30.19 in1022.4 mb - 0.00 in0.0 mm 0.00 in0.0 mm
02:05 AM 27.9°F-2.3°C 21.0°F-6.1°C 75% 13.8 mph E22.2 kmh E 16.1 mph25.9 kmh 30.18 in1022.0 mb - 0.00 in0.0 mm 0.00 in0.0 mm
02:10 AM 27.4°F-2.6°C 21.1°F-6.1°C 77% 10.4 mph E16.7 kmh E 16.1 mph25.9 kmh 30.18 in1022.0 mb - 0.00 in0.0 mm 0.00 in0.0 mm
02:15 AM 27.1°F-2.7°C 20.9°F-6.2°C 77% 18.4 mph E29.6 kmh E 26.5 mph42.6 kmh 30.18 in1022.0 mb - 0.00 in0.0 mm 0.00 in0.0 mm
02:20 AM 27.1°F-2.7°C 20.9°F-6.2°C 77% 19.6 mph E31.5 kmh E 29.9 mph48.1 kmh 30.17 in1021.7 mb - 0.00 in0.0 mm 0.00 in0.0 mm
02:25 AM 28.1°F-2.2°C 21.2°F-6.0°C 75% 19.6 mph E31.5 kmh E 27.6 mph44.4 kmh 30.17 in1021.7 mb - 0.00 in0.0 mm 0.00 in0.0 mm
02:30 AM 28.6°F-1.9°C 21.1°F-6.1°C 73% 18.4 mph E29.6 kmh E 27.6 mph44.4 kmh 30.17 in1021.7 mb - 0.00 in0.0 mm 0.00 in0.0 mm
02:35 AM 28.3°F-2.1°C 21.4°F-5.9°C 75% 21.9 mph E35.2 kmh E 32.2 mph51.8 kmh 30.18 in1022.0 mb - 0.00 in0.0 mm 0.00 in0.0 mm
02:40 AM 27.9°F-2.3°C 21.4°F-5.9°C 76% 9.2 mph E14.8 kmh E 15.0 mph24.1 kmh 30.17 in1021.7 mb - 0.00 in0.0 mm 0.00 in0.0 mm
02:45 AM 27.6°F-2.4°C 21.3°F-5.9°C 77% 10.4 mph E16.7 kmh E 16.1 mph25.9 kmh 30.17 in1021.7 mb - 0.00 in0.0 mm 0.00 in0.0 mm
02:50 AM 27.6°F-2.4°C 21.3°F-5.9°C 77% 15.0 mph E24.1 kmh E 16.1 mph25.9 kmh 30.17 in1021.7 mb - 0.00 in0.0 mm 0.00 in0.0 mm
02:55 AM 27.9°F-2.3°C 21.6°F-5.8°C 77% 11.5 mph E18.5 kmh E 15.0 mph24.1 kmh 30.17 in1021.7 mb - 0.00 in0.0 mm 0.00 in0.0 mm
03:00 AM 27.1°F-2.7°C 20.9°F-6.2°C 77% 10.4 mph E16.7 kmh E 12.7 mph20.4 kmh 30.17 in1021.7 mb - 0.00 in0.0 mm 0.00 in0.0 mm
03:05 AM 26.2°F-3.2°C 20.0°F-6.7°C 77% 11.5 mph E18.5 kmh E 11.5 mph18.5 kmh 30.16 in1021.3 mb - 0.00 in0.0 mm 0.00 in0.0 mm
03:10 AM 26.0°F-3.3°C 20.0°F-6.7°C 78% 6.9 mph E11.1 kmh E 11.5 mph18.5 kmh 30.16 in1021.3 mb - 0.00 in0.0 mm 0.00 in0.0 mm
03:15 AM 25.8°F-3.4°C 19.9°F-6.7°C 78% 10.4 mph ENE16.7 kmh ENE 17.3 mph27.8 kmh 30.16 in1021.3 mb - 0.00 in0.0 mm 0.00 in0.0 mm
03:20 AM 25.9°F-3.4°C 20.0°F-6.7°C 78% 15.0 mph E24.1 kmh E 19.6 mph31.5 kmh 30.16 in1021.3 mb - 0.00 in0.0 mm 0.00 in0.0 mm
03:25 AM 26.3°F-3.2°C 20.1°F-6.6°C 77% 15.0 mph E24.1 kmh E 25.3 mph40.7 kmh 30.16 in1021.3 mb - 0.00 in0.0 mm 0.00 in0.0 mm
03:30 AM 26.8°F-2.9°C 20.5°F-6.4°C 77% 16.1 mph E25.9 kmh E 19.6 mph31.5 kmh 30.16 in1021.3 mb - 0.00 in0.0 mm 0.00 in0.0 mm
03:35 AM 27.2°F-2.7°C 20.9°F-6.2°C 77% 18.4 mph E29.6 kmh E 27.6 mph44.4 kmh 30.15 in1021.0 mb - 0.00 in0.0 mm 0.00 in0.0 mm
03:40 AM 27.5°F-2.5°C 21.2°F-6.0°C 77% 17.3 mph E27.8 kmh E 23.0 mph37.0 kmh 30.15 in1021.0 mb - 0.00 in0.0 mm 0.00 in0.0 mm
03:45 AM 27.6°F-2.4°C 21.3°F-5.9°C 77% 17.3 mph E27.8 kmh E 20.7 mph33.3 kmh 30.15 in1021.0 mb - 0.00 in0.0 mm 0.00 in0.0 mm
03:50 AM 27.5°F-2.5°C 21.2°F-6.0°C 77% 20.7 mph E33.3 kmh E 29.9 mph48.1 kmh 30.14 in1020.7 mb - 0.00 in0.0 mm 0.00 in0.0 mm
03:55 AM 27.6°F-2.4°C 21.3°F-5.9°C 77% 17.3 mph E27.8 kmh E 20.7 mph33.3 kmh 30.14 in1020.7 mb - 0.00 in0.0 mm 0.00 in0.0 mm
04:00 AM 27.6°F-2.4°C 21.3°F-5.9°C 77% 15.0 mph E24.1 kmh E 16.1 mph25.9 kmh 30.14 in1020.7 mb - 0.00 in0.0 mm 0.00 in0.0 mm
04:05 AM 27.4°F-2.6°C 21.1°F-6.1°C 77% 17.3 mph E27.8 kmh E 24.2 mph38.9 kmh 30.14 in1020.7 mb - 0.00 in0.0 mm 0.00 in0.0 mm
04:10 AM 27.1°F-2.7°C 20.9°F-6.2°C 77% 17.3 mph E27.8 kmh E 21.9 mph35.2 kmh 30.14 in1020.7 mb - 0.00 in0.0 mm 0.00 in0.0 mm
04:15 AM 26.4°F-3.1°C 20.5°F-6.4°C 78% 15.0 mph E24.1 kmh E 18.4 mph29.6 kmh 30.14 in1020.7 mb - 0.00 in0.0 mm 0.00 in0.0 mm
04:20 AM 26.5°F-3.1°C 20.3°F-6.5°C 77% 13.8 mph E22.2 kmh E 19.6 mph31.5 kmh 30.14 in1020.7 mb - 0.00 in0.0 mm 0.00 in0.0 mm
04:25 AM 26.9°F-2.8°C 20.7°F-6.3°C 77% 15.0 mph E24.1 kmh E 21.9 mph35.2 kmh 30.14 in1020.7 mb - 0.00 in0.0 mm 0.00 in0.0 mm
04:30 AM 27.6°F-2.4°C 21.3°F-5.9°C 77% 19.6 mph E31.5 kmh E 26.5 mph42.6 kmh 30.13 in1020.3 mb - 0.00 in0.0 mm 0.00 in0.0 mm
04:35 AM 28.0°F-2.2°C 21.4°F-5.9°C 76% 15.0 mph E24.1 kmh E 17.3 mph27.8 kmh 30.13 in1020.3 mb - 0.00 in0.0 mm 0.00 in0.0 mm
04:40 AM 28.0°F-2.2°C 21.7°F-5.7°C 77% 18.4 mph E29.6 kmh E 31.1 mph50.1 kmh 30.12 in1020.0 mb - 0.00 in0.0 mm 0.00 in0.0 mm
04:45 AM 27.5°F-2.5°C 21.2°F-6.0°C 77% 17.3 mph E27.8 kmh E 26.5 mph42.6 kmh 30.13 in1020.3 mb - 0.00 in0.0 mm 0.00 in0.0 mm
04:50 AM 26.3°F-3.2°C 20.4°F-6.4°C 78% 19.6 mph E31.5 kmh E 26.5 mph42.6 kmh 30.13 in1020.3 mb - 0.00 in0.0 mm 0.00 in0.0 mm
04:55 AM 26.4°F-3.1°C 20.5°F-6.4°C 78% 19.6 mph E31.5 kmh E 26.5 mph42.6 kmh 30.12 in1020.0 mb - 0.00 in0.0 mm 0.00 in0.0 mm
05:00 AM 27.0°F-2.8°C 20.8°F-6.2°C 77% 17.3 mph E27.8 kmh E 25.3 mph40.7 kmh 30.12 in1020.0 mb - 0.00 in0.0 mm 0.00 in0.0 mm
05:05 AM 27.7°F-2.4°C 21.4°F-5.9°C 77% 16.1 mph E25.9 kmh E 19.6 mph31.5 kmh 30.12 in1020.0 mb - 0.00 in0.0 mm 0.00 in0.0 mm
05:10 AM 27.1°F-2.7°C 20.9°F-6.2°C 77% 15.0 mph E24.1 kmh E 18.4 mph29.6 kmh 30.12 in1020.0 mb - 0.00 in0.0 mm 0.00 in0.0 mm
05:15 AM 26.9°F-2.8°C 20.7°F-6.3°C 77% 13.8 mph E22.2 kmh E 24.2 mph38.9 kmh 30.11 in1019.6 mb - 0.00 in0.0 mm 0.00 in0.0 mm
05:20 AM 27.4°F-2.6°C 20.9°F-6.2°C 76% 17.3 mph E27.8 kmh E 20.7 mph33.3 kmh 30.11 in1019.6 mb - 0.00 in0.0 mm 0.00 in0.0 mm
05:25 AM 27.9°F-2.3°C 21.0°F-6.1°C 75% 17.3 mph E27.8 kmh E 25.3 mph40.7 kmh 30.11 in1019.6 mb - 0.00 in0.0 mm 0.00 in0.0 mm
05:30 AM 28.2°F-2.1°C 21.0°F-6.1°C 74% 17.3 mph E27.8 kmh E 26.5 mph42.6 kmh 30.11 in1019.6 mb - 0.00 in0.0 mm 0.00 in0.0 mm
05:35 AM 28.4°F-2.0°C 21.2°F-6.0°C 74% 16.1 mph E25.9 kmh E 24.2 mph38.9 kmh 30.11 in1019.6 mb - 0.00 in0.0 mm 0.00 in0.0 mm
05:40 AM 28.4°F-2.0°C 20.8°F-6.2°C 73% 17.3 mph E27.8 kmh E 20.7 mph33.3 kmh 30.11 in1019.6 mb - 0.00 in0.0 mm 0.00 in0.0 mm
05:45 AM 28.0°F-2.2°C 21.4°F-5.9°C 76% 13.8 mph E22.2 kmh E 17.3 mph27.8 kmh 30.11 in1019.6 mb - 0.00 in0.0 mm 0.00 in0.0 mm
05:50 AM 27.3°F-2.6°C 21.0°F-6.1°C 77% 19.6 mph ENE31.5 kmh ENE 26.5 mph42.6 kmh 30.10 in1019.3 mb - 0.00 in0.0 mm 0.00 in0.0 mm
05:55 AM 27.6°F-2.4°C 21.3°F-5.9°C 77% 18.4 mph ENE29.6 kmh ENE 28.8 mph46.3 kmh 30.10 in1019.3 mb - 0.00 in0.0 mm 0.00 in0.0 mm
06:00 AM 27.8°F-2.3°C 21.5°F-5.8°C 77% 21.9 mph E35.2 kmh E 28.8 mph46.3 kmh 30.10 in1019.3 mb - 0.00 in0.0 mm 0.00 in0.0 mm
06:05 AM 27.9°F-2.3°C 21.3°F-5.9°C 76% 23.0 mph ENE37.0 kmh ENE 29.9 mph48.1 kmh 30.10 in1019.3 mb - 0.00 in0.0 mm 0.00 in0.0 mm
06:10 AM 28.2°F-2.1°C 21.3°F-5.9°C 75% 17.3 mph E27.8 kmh E 26.5 mph42.6 kmh 30.10 in1019.3 mb - 0.00 in0.0 mm 0.00 in0.0 mm
06:15 AM 28.4°F-2.0°C 21.8°F-5.7°C 76% 20.7 mph E33.3 kmh E 28.8 mph46.3 kmh 30.10 in1019.3 mb - 0.00 in0.0 mm 0.00 in0.0 mm
06:20 AM 28.3°F-2.1°C 22.0°F-5.6°C 77% 16.1 mph E25.9 kmh E 21.9 mph35.2 kmh 30.10 in1019.3 mb - 0.00 in0.0 mm 0.00 in0.0 mm
06:25 AM 27.1°F-2.7°C 20.8°F-6.2°C 77% 10.4 mph E16.7 kmh E 13.8 mph22.2 kmh 30.10 in1019.3 mb - 0.00 in0.0 mm 0.00 in0.0 mm
06:30 AM 26.4°F-3.1°C 20.5°F-6.4°C 78% 11.5 mph E18.5 kmh E 19.6 mph31.5 kmh 30.10 in1019.3 mb - 0.00 in0.0 mm 0.00 in0.0 mm
06:35 AM 26.2°F-3.2°C 20.3°F-6.5°C 78% 15.0 mph E24.1 kmh E 18.4 mph29.6 kmh 30.10 in1019.3 mb - 0.00 in0.0 mm 0.00 in0.0 mm
06:40 AM 26.2°F-3.2°C 20.3°F-6.5°C 78% 6.9 mph E11.1 kmh E 11.5 mph18.5 kmh 30.11 in1019.6 mb - 0.00 in0.0 mm 0.00 in0.0 mm
06:45 AM 26.1°F-3.3°C 20.5°F-6.4°C 79% 6.9 mph E11.1 kmh E 9.2 mph14.8 kmh 30.10 in1019.3 mb - 0.00 in0.0 mm 0.00 in0.0 mm
06:50 AM 26.1°F-3.3°C 20.5°F-6.4°C 79% 8.1 mph E13.0 kmh E 13.8 mph22.2 kmh 30.09 in1019.0 mb - 0.00 in0.0 mm 0.00 in0.0 mm
06:55 AM 26.1°F-3.3°C 20.5°F-6.4°C 79% 11.5 mph E18.5 kmh E 15.0 mph24.1 kmh 30.09 in1019.0 mb - 0.00 in0.0 mm 0.00 in0.0 mm
07:00 AM 26.2°F-3.2°C 20.6°F-6.3°C 79% 16.1 mph E25.9 kmh E 24.2 mph38.9 kmh 30.09 in1019.0 mb - 0.00 in0.0 mm 0.00 in0.0 mm
07:05 AM 26.4°F-3.1°C 20.8°F-6.2°C 79% 15.0 mph E24.1 kmh E 23.0 mph37.0 kmh 30.09 in1019.0 mb - 0.00 in0.0 mm 0.00 in0.0 mm
07:10 AM 26.5°F-3.1°C 20.9°F-6.2°C 79% 10.4 mph E16.7 kmh E 16.1 mph25.9 kmh 30.10 in1019.3 mb - 0.00 in0.0 mm 0.00 in0.0 mm
07:15 AM 26.4°F-3.1°C 20.8°F-6.2°C 79% 12.7 mph E20.4 kmh E 19.6 mph31.5 kmh 30.09 in1019.0 mb - 0.00 in0.0 mm 0.00 in0.0 mm
07:20 AM 26.4°F-3.1°C 21.0°F-6.1°C 80% 8.1 mph E13.0 kmh E 15.0 mph24.1 kmh 30.09 in1019.0 mb - 0.00 in0.0 mm 0.00 in0.0 mm
07:25 AM 26.3°F-3.2°C 21.0°F-6.1°C 80% 16.1 mph E25.9 kmh E 19.6 mph31.5 kmh 30.09 in1019.0 mb - 0.00 in0.0 mm 0.00 in0.0 mm
07:30 AM 26.3°F-3.2°C 21.0°F-6.1°C 80% 18.4 mph E29.6 kmh E 20.7 mph33.3 kmh 30.09 in1019.0 mb - 0.00 in0.0 mm 0.00 in0.0 mm
07:35 AM 26.5°F-3.1°C 21.1°F-6.1°C 80% 13.8 mph E22.2 kmh E 18.4 mph29.6 kmh 30.09 in1019.0 mb - 0.00 in0.0 mm 0.00 in0.0 mm
07:40 AM 26.4°F-3.1°C 21.1°F-6.1°C 80% 16.1 mph E25.9 kmh E 21.9 mph35.2 kmh 30.09 in1019.0 mb - 0.00 in0.0 mm 0.00 in0.0 mm
07:45 AM 26.3°F-3.2°C 21.0°F-6.1°C 80% 9.2 mph E14.8 kmh E 23.0 mph37.0 kmh 30.08 in1018.6 mb - 0.00 in0.0 mm 0.00 in0.0 mm
07:50 AM 26.4°F-3.1°C 21.1°F-6.1°C 80% 12.7 mph E20.4 kmh E 21.9 mph35.2 kmh 30.09 in1019.0 mb - 0.00 in0.0 mm 0.00 in0.0 mm
07:55 AM 26.5°F-3.1°C 21.2°F-6.0°C 80% 12.7 mph E20.4 kmh E 12.7 mph20.4 kmh 30.08 in1018.6 mb - 0.00 in0.0 mm 0.00 in0.0 mm
08:00 AM 26.4°F-3.1°C 21.1°F-6.1°C 80% 11.5 mph E18.5 kmh E 19.6 mph31.5 kmh 30.07 in1018.3 mb - 0.00 in0.0 mm 0.00 in0.0 mm
08:05 AM 26.2°F-3.2°C 21.2°F-6.0°C 81% 13.8 mph E22.2 kmh E 25.3 mph40.7 kmh 30.07 in1018.3 mb - 0.00 in0.0 mm 0.00 in0.0 mm
08:10 AM 26.2°F-3.2°C 20.9°F-6.2°C 80% 21.9 mph E35.2 kmh E 26.5 mph42.6 kmh 30.07 in1018.3 mb - 0.00 in0.0 mm 0.00 in0.0 mm
08:15 AM 26.4°F-3.1°C 21.1°F-6.1°C 80% 20.7 mph E33.3 kmh E 27.6 mph44.4 kmh 30.07 in1018.3 mb - 0.00 in0.0 mm 0.00 in0.0 mm
08:20 AM 26.3°F-3.2°C 21.0°F-6.1°C 80% 15.0 mph E24.1 kmh E 20.7 mph33.3 kmh 30.06 in1017.9 mb - 0.00 in0.0 mm 0.00 in0.0 mm
08:25 AM 26.2°F-3.2°C 20.9°F-6.2°C 80% 18.4 mph E29.6 kmh E 23.0 mph37.0 kmh 30.06 in1017.9 mb - 0.00 in0.0 mm 0.00 in0.0 mm
08:30 AM 26.6°F-3.0°C 21.2°F-6.0°C 80% 20.7 mph E33.3 kmh E 25.3 mph40.7 kmh 30.06 in1017.9 mb - 0.00 in0.0 mm 0.00 in0.0 mm
08:35 AM 26.9°F-2.8°C 21.5°F-5.8°C 80% 19.6 mph E31.5 kmh E 25.3 mph40.7 kmh 30.07 in1018.3 mb - 0.00 in0.0 mm 0.00 in0.0 mm
08:40 AM 26.8°F-2.9°C 21.5°F-5.8°C 80% 11.5 mph ENE18.5 kmh ENE 25.3 mph40.7 kmh 30.06 in1017.9 mb - 0.00 in0.0 mm 0.00 in0.0 mm
08:45 AM 26.7°F-2.9°C 21.4°F-5.9°C 80% 13.8 mph E22.2 kmh E 28.8 mph46.3 kmh 30.06 in1017.9 mb - 0.00 in0.0 mm 0.00 in0.0 mm
08:50 AM 26.6°F-3.0°C 21.3°F-5.9°C 80% 13.8 mph E22.2 kmh E 18.4 mph29.6 kmh 30.06 in1017.9 mb - 0.00 in0.0 mm 0.00 in0.0 mm
08:55 AM 26.6°F-3.0°C 21.3°F-5.9°C 80% 10.4 mph E16.7 kmh E 11.5 mph18.5 kmh 30.06 in1017.9 mb - 0.00 in0.0 mm 0.00 in0.0 mm
09:00 AM 26.9°F-2.8°C 21.5°F-5.8°C 80% 12.7 mph E20.4 kmh E 19.6 mph31.5 kmh 30.06 in1017.9 mb - 0.00 in0.0 mm 0.00 in0.0 mm
09:05 AM 27.1°F-2.7°C 21.8°F-5.7°C 80% 11.5 mph E18.5 kmh E 17.3 mph27.8 kmh 30.05 in1017.6 mb - 0.00 in0.0 mm 0.00 in0.0 mm
09:10 AM 27.4°F-2.6°C 22.0°F-5.6°C 80% 13.8 mph E22.2 kmh E 21.9 mph35.2 kmh 30.05 in1017.6 mb - 0.00 in0.0 mm 0.00 in0.0 mm
09:15 AM 27.3°F-2.6°C 21.9°F-5.6°C 80% 15.0 mph E24.1 kmh E 20.7 mph33.3 kmh 30.05 in1017.6 mb - 0.00 in0.0 mm 0.00 in0.0 mm
09:20 AM 27.2°F-2.7°C 21.6°F-5.8°C 79% 13.8 mph E22.2 kmh E 19.6 mph31.5 kmh 30.05 in1017.6 mb - 0.00 in0.0 mm 0.00 in0.0 mm
09:25 AM 27.0°F-2.8°C 21.7°F-5.7°C 80% 15.0 mph E24.1 kmh E 17.3 mph27.8 kmh 30.06 in1017.9 mb - 0.00 in0.0 mm 0.00 in0.0 mm
09:30 AM 27.1°F-2.7°C 21.7°F-5.7°C 80% 10.4 mph E16.7 kmh E 18.4 mph29.6 kmh 30.06 in1017.9 mb - 0.00 in0.0 mm 0.00 in0.0 mm
09:35 AM 27.1°F-2.7°C 21.7°F-5.7°C 80% 12.7 mph E20.4 kmh E 13.8 mph22.2 kmh 30.06 in1017.9 mb - 0.00 in0.0 mm 0.00 in0.0 mm
09:40 AM 27.1°F-2.7°C 21.7°F-5.7°C 80% 11.5 mph E18.5 kmh E 19.6 mph31.5 kmh 30.06 in1017.9 mb - 0.00 in0.0 mm 0.00 in0.0 mm
09:45 AM 27.0°F-2.8°C 21.7°F-5.7°C 80% 15.0 mph E24.1 kmh E 26.5 mph42.6 kmh 30.06 in1017.9 mb - 0.00 in0.0 mm 0.00 in0.0 mm
09:50 AM 26.7°F-2.9°C 21.4°F-5.9°C 80% 13.8 mph E22.2 kmh E 15.0 mph24.1 kmh 30.05 in1017.6 mb - 0.00 in0.0 mm 0.00 in0.0 mm
09:55 AM 26.8°F-2.9°C 21.5°F-5.8°C 80% 9.2 mph E14.8 kmh E 16.1 mph25.9 kmh 30.05 in1017.6 mb - 0.00 in0.0 mm 0.00 in0.0 mm
10:00 AM 26.8°F-2.9°C 21.5°F-5.8°C 80% 17.3 mph E27.8 kmh E 23.0 mph37.0 kmh 30.05 in1017.6 mb - 0.00 in0.0 mm 0.00 in0.0 mm
10:05 AM 26.8°F-2.9°C 21.8°F-5.7°C 81% 17.3 mph E27.8 kmh E 26.5 mph42.6 kmh 30.05 in1017.6 mb - 0.00 in0.0 mm 0.00 in0.0 mm
10:10 AM 27.0°F-2.8°C 21.9°F-5.6°C 81% 13.8 mph E22.2 kmh E 18.4 mph29.6 kmh 30.04 in1017.3 mb - 0.00 in0.0 mm 0.00 in0.0 mm
10:15 AM 27.2°F-2.7°C 21.8°F-5.7°C 80% 19.6 mph E31.5 kmh E 26.5 mph42.6 kmh 30.04 in1017.3 mb - 0.00 in0.0 mm 0.00 in0.0 mm
10:20 AM 27.3°F-2.6°C 21.9°F-5.6°C 80% 17.3 mph E27.8 kmh E 21.9 mph35.2 kmh 30.04 in1017.3 mb - 0.00 in0.0 mm 0.00 in0.0 mm
10:25 AM 27.3°F-2.6°C 22.0°F-5.6°C 80% 10.4 mph E16.7 kmh E 16.1 mph25.9 kmh 30.04 in1017.3 mb - 0.00 in0.0 mm 0.00 in0.0 mm
10:30 AM 27.5°F-2.5°C 22.1°F-5.5°C 80% 12.7 mph E20.4 kmh E 19.6 mph31.5 kmh 30.03 in1016.9 mb - 0.00 in0.0 mm 0.00 in0.0 mm
10:35 AM 27.9°F-2.3°C 22.2°F-5.4°C 79% 16.1 mph E25.9 kmh E 23.0 mph37.0 kmh 30.03 in1016.9 mb - 0.00 in0.0 mm 0.00 in0.0 mm
10:40 AM 28.3°F-2.1°C 22.6°F-5.2°C 79% 18.4 mph E29.6 kmh E 26.5 mph42.6 kmh 30.03 in1016.9 mb - 0.00 in0.0 mm 0.00 in0.0 mm
10:45 AM 28.6°F-1.9°C 22.9°F-5.1°C 79% 13.8 mph E22.2 kmh E 16.1 mph25.9 kmh 30.03 in1016.9 mb - 0.00 in0.0 mm 0.00 in0.0 mm
10:50 AM 28.8°F-1.8°C 23.1°F-4.9°C 79% 16.1 mph E25.9 kmh E 19.6 mph31.5 kmh 30.03 in1016.9 mb - 0.00 in0.0 mm 0.00 in0.0 mm
10:55 AM 28.8°F-1.8°C 23.1°F-4.9°C 79% 19.6 mph E31.5 kmh E 26.5 mph42.6 kmh 30.03 in1016.9 mb - 0.00 in0.0 mm 0.00 in0.0 mm
11:00 AM 28.6°F-1.9°C 22.9°F-5.1°C 79% 19.6 mph E31.5 kmh E 24.2 mph38.9 kmh 30.02 in1016.6 mb - 0.00 in0.0 mm 0.00 in0.0 mm
11:05 AM 28.3°F-2.1°C 22.3°F-5.4°C 78% 18.4 mph E29.6 kmh E 21.9 mph35.2 kmh 30.02 in1016.6 mb - 0.00 in0.0 mm 0.00 in0.0 mm
11:10 AM 28.5°F-1.9°C 22.5°F-5.3°C 78% 15.0 mph E24.1 kmh E 33.4 mph53.8 kmh 30.01 in1016.3 mb - 0.00 in0.0 mm 0.00 in0.0 mm
11:15 AM 28.5°F-1.9°C 22.5°F-5.3°C 78% 16.1 mph E25.9 kmh E 20.7 mph33.3 kmh 30.02 in1016.6 mb - 0.00 in0.0 mm 0.00 in0.0 mm
11:20 AM 28.4°F-2.0°C 22.4°F-5.3°C 78% 20.7 mph E33.3 kmh E 26.5 mph42.6 kmh 30.01 in1016.3 mb - 0.00 in0.0 mm 0.00 in0.0 mm
11:25 AM 28.4°F-2.0°C 22.4°F-5.3°C 78% 15.0 mph E24.1 kmh E 20.7 mph33.3 kmh 30.00 in1015.9 mb - 0.00 in0.0 mm 0.00 in0.0 mm
11:30 AM 28.6°F-1.9°C 22.6°F-5.2°C 78% 17.3 mph E27.8 kmh E 24.2 mph38.9 kmh 30.00 in1015.9 mb - 0.00 in0.0 mm 0.00 in0.0 mm
11:35 AM 28.8°F-1.8°C 22.8°F-5.1°C 78% 17.3 mph E27.8 kmh E 25.3 mph40.7 kmh 30.00 in1015.9 mb - 0.00 in0.0 mm 0.00 in0.0 mm
11:40 AM 29.0°F-1.7°C 23.0°F-5.0°C 78% 17.3 mph E27.8 kmh E 26.5 mph42.6 kmh 30.00 in1015.9 mb - 0.00 in0.0 mm 0.00 in0.0 mm
11:45 AM 29.0°F-1.7°C 23.0°F-5.0°C 78% 17.3 mph E27.8 kmh E 21.9 mph35.2 kmh 30.01 in1016.3 mb - 0.00 in0.0 mm 0.00 in0.0 mm
11:50 AM 28.9°F-1.7°C 22.9°F-5.1°C 78% 17.3 mph E27.8 kmh E 23.0 mph37.0 kmh 30.01 in1016.3 mb - 0.00 in0.0 mm 0.00 in0.0 mm
11:55 AM 28.6°F-1.9°C 22.6°F-5.2°C 78% 20.7 mph E33.3 kmh E 27.6 mph44.4 kmh 30.00 in1015.9 mb - 0.00 in0.0 mm 0.00 in0.0 mm
12:00 PM 28.7°F-1.8°C 22.7°F-5.2°C 78% 18.4 mph E29.6 kmh E 27.6 mph44.4 kmh 30.00 in1015.9 mb - 0.00 in0.0 mm 0.00 in0.0 mm
12:05 PM 29.1°F-1.6°C 23.1°F-4.9°C 78% 16.1 mph E25.9 kmh E 25.3 mph40.7 kmh 30.00 in1015.9 mb - 0.00 in0.0 mm 0.00 in0.0 mm
12:10 PM 29.3°F-1.5°C 23.3°F-4.8°C 78% 16.1 mph E25.9 kmh E 26.5 mph42.6 kmh 30.00 in1015.9 mb - 0.00 in0.0 mm 0.00 in0.0 mm
12:15 PM 29.4°F-1.4°C 23.4°F-4.8°C 78% 17.3 mph E27.8 kmh E 24.2 mph38.9 kmh 29.99 in1015.6 mb - 0.00 in0.0 mm 0.00 in0.0 mm
12:20 PM 29.3°F-1.5°C 23.3°F-4.8°C 78% 12.7 mph E20.4 kmh E 20.7 mph33.3 kmh 29.99 in1015.6 mb - 0.00 in0.0 mm 0.00 in0.0 mm
12:25 PM 29.1°F-1.6°C 23.1°F-4.9°C 78% 12.7 mph E20.4 kmh E 23.0 mph37.0 kmh 29.99 in1015.6 mb - 0.00 in0.0 mm 0.00 in0.0 mm
12:30 PM 29.0°F-1.7°C 23.0°F-5.0°C 78% 15.0 mph E24.1 kmh E 25.3 mph40.7 kmh 29.99 in1015.6 mb - 0.00 in0.0 mm 0.00 in0.0 mm
12:35 PM 29.0°F-1.7°C 23.3°F-4.8°C 79% 16.1 mph E25.9 kmh E 23.0 mph37.0 kmh 29.99 in1015.6 mb - 0.00 in0.0 mm 0.00 in0.0 mm
12:40 PM 29.0°F-1.7°C 23.3°F-4.8°C 79% 18.4 mph E29.6 kmh E 34.5 mph55.5 kmh 29.99 in1015.6 mb - 0.00 in0.0 mm 0.00 in0.0 mm
12:45 PM 28.7°F-1.8°C 23.0°F-5.0°C 79% 13.8 mph E22.2 kmh E 25.3 mph40.7 kmh 29.98 in1015.2 mb - 0.00 in0.0 mm 0.00 in0.0 mm
12:50 PM 28.8°F-1.8°C 23.1°F-4.9°C 79% 19.6 mph E31.5 kmh E 24.2 mph38.9 kmh 29.98 in1015.2 mb - 0.00 in0.0 mm 0.00 in0.0 mm
12:55 PM 29.0°F-1.7°C 23.0°F-5.0°C 78% 16.1 mph ESE25.9 kmh ESE 25.3 mph40.7 kmh 29.98 in1015.2 mb - 0.00 in0.0 mm 0.00 in0.0 mm
01:00 PM 28.9°F-1.7°C 22.9°F-5.1°C 78% 19.6 mph E31.5 kmh E 28.8 mph46.3 kmh 29.98 in1015.2 mb - 0.01 in0.3 mm 0.01 in0.3 mm
01:05 PM 28.4°F-2.0°C 22.7°F-5.2°C 79% 15.0 mph E24.1 kmh E 25.3 mph40.7 kmh 29.98 in1015.2 mb - 0.00 in0.0 mm 0.01 in0.3 mm
01:10 PM 28.3°F-2.1°C 22.9°F-5.1°C 80% 19.6 mph E31.5 kmh E 25.3 mph40.7 kmh 29.98 in1015.2 mb - 0.00 in0.0 mm 0.01 in0.3 mm
01:15 PM 28.3°F-2.1°C 22.9°F-5.1°C 80% 17.3 mph E27.8 kmh E 31.1 mph50.1 kmh 29.97 in1014.9 mb - 0.00 in0.0 mm 0.01 in0.3 mm
01:20 PM 28.5°F-1.9°C 23.1°F-4.9°C 80% 11.5 mph E18.5 kmh E 16.1 mph25.9 kmh 29.97 in1014.9 mb - 0.00 in0.0 mm 0.01 in0.3 mm
01:25 PM 28.9°F-1.7°C 23.5°F-4.7°C 80% 16.1 mph E25.9 kmh E 21.9 mph35.2 kmh 29.97 in1014.9 mb - 0.00 in0.0 mm 0.01 in0.3 mm
01:30 PM 29.1°F-1.6°C 23.7°F-4.6°C 80% 17.3 mph E27.8 kmh E 20.7 mph33.3 kmh 29.97 in1014.9 mb - 0.00 in0.0 mm 0.01 in0.3 mm
01:35 PM 29.1°F-1.6°C 23.7°F-4.6°C 80% 16.1 mph E25.9 kmh E 18.4 mph29.6 kmh 29.97 in1014.9 mb - 0.00 in0.0 mm 0.01 in0.3 mm
01:40 PM 29.0°F-1.7°C 23.6°F-4.7°C 80% 9.2 mph ESE14.8 kmh ESE 10.4 mph16.7 kmh 29.97 in1014.9 mb - 0.00 in0.0 mm 0.01 in0.3 mm
01:45 PM 28.7°F-1.8°C 23.3°F-4.8°C 80% 12.7 mph E20.4 kmh E 18.4 mph29.6 kmh 29.97 in1014.9 mb - 0.00 in0.0 mm 0.01 in0.3 mm
01:50 PM 28.5°F-1.9°C 23.1°F-4.9°C 80% 9.2 mph E14.8 kmh E 16.1 mph25.9 kmh 29.96 in1014.6 mb - 0.00 in0.0 mm 0.01 in0.3 mm
01:55 PM 28.5°F-1.9°C 23.1°F-4.9°C 80% 10.4 mph E16.7 kmh E 13.8 mph22.2 kmh 29.96 in1014.6 mb - 0.00 in0.0 mm 0.01 in0.3 mm
02:00 PM 28.6°F-1.9°C 23.3°F-4.8°C 80% 8.1 mph E13.0 kmh E 11.5 mph18.5 kmh 29.95 in1014.2 mb - 0.00 in0.0 mm 0.01 in0.3 mm
02:05 PM 28.7°F-1.8°C 23.3°F-4.8°C 80% 13.8 mph E22.2 kmh E 20.7 mph33.3 kmh 29.95 in1014.2 mb - 0.01 in0.3 mm 0.02 in0.5 mm
02:10 PM 28.8°F-1.8°C 23.7°F-4.6°C 81% 12.7 mph E20.4 kmh E 19.6 mph31.5 kmh 29.95 in1014.2 mb - 0.00 in0.0 mm 0.02 in0.5 mm
02:15 PM 28.8°F-1.8°C 23.4°F-4.8°C 80% 13.8 mph E22.2 kmh E 26.5 mph42.6 kmh 29.94 in1013.9 mb - 0.00 in0.0 mm 0.02 in0.5 mm
02:20 PM 29.0°F-1.7°C 23.6°F-4.7°C 80% 12.7 mph E20.4 kmh E 12.7 mph20.4 kmh 29.95 in1014.2 mb - 0.00 in0.0 mm 0.02 in0.5 mm
02:25 PM 29.2°F-1.6°C 23.5°F-4.7°C 79% 11.5 mph E18.5 kmh E 15.0 mph24.1 kmh 29.94 in1013.9 mb - 0.00 in0.0 mm 0.02 in0.5 mm
02:30 PM 29.1°F-1.6°C 23.4°F-4.8°C 79% 12.7 mph E20.4 kmh E 17.3 mph27.8 kmh 29.94 in1013.9 mb - 0.00 in0.0 mm 0.02 in0.5 mm
02:35 PM 29.1°F-1.6°C 23.4°F-4.8°C 79% 13.8 mph E22.2 kmh E 15.0 mph24.1 kmh 29.94 in1013.9 mb - 0.00 in0.0 mm 0.02 in0.5 mm
02:40 PM 29.1°F-1.6°C 23.4°F-4.8°C 79% 16.1 mph E25.9 kmh E 18.4 mph29.6 kmh 29.93 in1013.5 mb - 0.00 in0.0 mm 0.02 in0.5 mm
02:45 PM 29.0°F-1.7°C 23.3°F-4.8°C 79% 12.7 mph E20.4 kmh E 13.8 mph22.2 kmh 29.93 in1013.5 mb - 0.00 in0.0 mm 0.02 in0.5 mm
02:50 PM 29.1°F-1.6°C 23.4°F-4.8°C 79% 19.6 mph E31.5 kmh E 33.4 mph53.8 kmh 29.93 in1013.5 mb - 0.00 in0.0 mm 0.02 in0.5 mm
02:55 PM 29.1°F-1.6°C 23.1°F-4.9°C 78% 21.9 mph E35.2 kmh E 26.5 mph42.6 kmh 29.93 in1013.5 mb - 0.00 in0.0 mm 0.02 in0.5 mm
03:00 PM 29.1°F-1.6°C 23.1°F-4.9°C 78% 24.2 mph E38.9 kmh E 32.2 mph51.8 kmh 29.93 in1013.5 mb - 0.00 in0.0 mm 0.02 in0.5 mm
03:05 PM 29.0°F-1.7°C 23.0°F-5.0°C 78% 21.9 mph E35.2 kmh E 31.1 mph50.1 kmh 29.92 in1013.2 mb - 0.00 in0.0 mm 0.02 in0.5 mm
03:10 PM 29.0°F-1.7°C 23.0°F-5.0°C 78% 23.0 mph E37.0 kmh E 28.8 mph46.3 kmh 29.92 in1013.2 mb - 0.01 in0.3 mm 0.03 in0.8 mm
03:15 PM 28.8°F-1.8°C 22.8°F-5.1°C 78% 20.7 mph E33.3 kmh E 27.6 mph44.4 kmh 29.93 in1013.5 mb - 0.01 in0.3 mm 0.03 in0.8 mm
03:20 PM 28.7°F-1.8°C 22.7°F-5.2°C 78% 20.7 mph E33.3 kmh E 33.4 mph53.8 kmh 29.93 in1013.5 mb - 0.00 in0.0 mm 0.03 in0.8 mm
03:25 PM 28.4°F-2.0°C 22.8°F-5.1°C 79% 21.9 mph ENE35.2 kmh ENE 32.2 mph51.8 kmh 29.92 in1013.2 mb - 0.00 in0.0 mm 0.03 in0.8 mm
03:30 PM 28.1°F-2.2°C 22.1°F-5.5°C 78% 24.2 mph E38.9 kmh E 32.2 mph51.8 kmh 29.91 in1012.9 mb - 0.00 in0.0 mm 0.03 in0.8 mm
03:35 PM 28.3°F-2.1°C 22.3°F-5.4°C 78% 19.6 mph E31.5 kmh E 27.6 mph44.4 kmh 29.91 in1012.9 mb - 0.00 in0.0 mm 0.03 in0.8 mm
03:40 PM 28.6°F-1.9°C 22.6°F-5.2°C 78% 24.2 mph E38.9 kmh E 31.1 mph50.1 kmh 29.91 in1012.9 mb - 0.01 in0.3 mm 0.03 in0.8 mm
03:45 PM 28.5°F-1.9°C 22.5°F-5.3°C 78% 16.1 mph E25.9 kmh E 26.5 mph42.6 kmh 29.92 in1013.2 mb - 0.00 in0.0 mm 0.03 in0.8 mm
03:50 PM 28.2°F-2.1°C 22.5°F-5.3°C 79% 12.7 mph ENE20.4 kmh ENE 19.6 mph31.5 kmh 29.91 in1012.9 mb - 0.00 in0.0 mm 0.03 in0.8 mm
03:55 PM 28.1°F-2.2°C 22.4°F-5.3°C 79% 13.8 mph E22.2 kmh E 19.6 mph31.5 kmh 29.92 in1013.2 mb - 0.00 in0.0 mm 0.03 in0.8 mm
04:00 PM 28.3°F-2.1°C 22.7°F-5.2°C 79% 18.4 mph E29.6 kmh E 29.9 mph48.1 kmh 29.92 in1013.2 mb - 0.00 in0.0 mm 0.03 in0.8 mm
04:05 PM 28.1°F-2.2°C 22.4°F-5.3°C 79% 18.4 mph E29.6 kmh E 24.2 mph38.9 kmh 29.92 in1013.2 mb - 0.00 in0.0 mm 0.03 in0.8 mm
04:10 PM 27.8°F-2.3°C 22.1°F-5.5°C 79% 18.4 mph E29.6 kmh E 24.2 mph38.9 kmh 29.91 in1012.9 mb - 0.00 in0.0 mm 0.03 in0.8 mm
04:15 PM 27.6°F-2.4°C 22.2°F-5.4°C 80% 11.5 mph ENE18.5 kmh ENE 19.6 mph31.5 kmh 29.92 in1013.2 mb - 0.00 in0.0 mm 0.03 in0.8 mm
04:20 PM 27.6°F-2.4°C 22.2°F-5.4°C 80% 17.3 mph E27.8 kmh E 20.7 mph33.3 kmh 29.91 in1012.9 mb - 0.00 in0.0 mm 0.03 in0.8 mm
04:25 PM 27.6°F-2.4°C 22.2°F-5.4°C 80% 18.4 mph ENE29.6 kmh ENE 24.2 mph38.9 kmh 29.90 in1012.5 mb - 0.00 in0.0 mm 0.03 in0.8 mm
04:30 PM 27.8°F-2.3°C 22.4°F-5.3°C 80% 21.9 mph ENE35.2 kmh ENE 34.5 mph55.5 kmh 29.90 in1012.5 mb - 0.00 in0.0 mm 0.03 in0.8 mm
04:35 PM 27.9°F-2.3°C 22.5°F-5.3°C 80% 17.3 mph E27.8 kmh E 25.3 mph40.7 kmh 29.90 in1012.5 mb - 0.00 in0.0 mm 0.03 in0.8 mm
04:40 PM 27.8°F-2.3°C 22.4°F-5.3°C 80% 17.3 mph E27.8 kmh E 19.6 mph31.5 kmh 29.90 in1012.5 mb - 0.00 in0.0 mm 0.03 in0.8 mm
04:45 PM 27.9°F-2.3°C 22.2°F-5.4°C 79% 15.0 mph E24.1 kmh E 19.6 mph31.5 kmh 29.91 in1012.9 mb - 0.00 in0.0 mm 0.03 in0.8 mm
04:50 PM 27.9°F-2.3°C 22.3°F-5.4°C 79% 17.3 mph E27.8 kmh E 20.7 mph33.3 kmh 29.90 in1012.5 mb - 0.00 in0.0 mm 0.03 in0.8 mm
04:55 PM 27.9°F-2.3°C 22.3°F-5.4°C 79% 15.0 mph E24.1 kmh E 23.0 mph37.0 kmh 29.91 in1012.9 mb - 0.01 in0.3 mm 0.04 in1.0 mm
05:00 PM 27.8°F-2.3°C 22.1°F-5.5°C 79% 15.0 mph E24.1 kmh E 24.2 mph38.9 kmh 29.91 in1012.9 mb - 0.00 in0.0 mm 0.04 in1.0 mm
05:05 PM 27.6°F-2.4°C 22.2°F-5.4°C 80% 16.1 mph E25.9 kmh E 24.2 mph38.9 kmh 29.91 in1012.9 mb - 0.00 in0.0 mm 0.04 in1.0 mm
05:10 PM 27.4°F-2.6°C 22.0°F-5.6°C 80% 16.1 mph E25.9 kmh E 25.3 mph40.7 kmh 29.90 in1012.5 mb - 0.00 in0.0 mm 0.04 in1.0 mm
05:15 PM 27.5°F-2.5°C 22.4°F-5.3°C 81% 11.5 mph E18.5 kmh E 11.5 mph18.5 kmh 29.90 in1012.5 mb - 0.00 in0.0 mm 0.04 in1.0 mm
05:20 PM 27.5°F-2.5°C 22.4°F-5.3°C 81% 17.3 mph E27.8 kmh E 24.2 mph38.9 kmh 29.90 in1012.5 mb - 0.00 in0.0 mm 0.04 in1.0 mm
05:25 PM 27.6°F-2.4°C 22.5°F-5.3°C 81% 11.5 mph E18.5 kmh E 12.7 mph20.4 kmh 29.89 in1012.2 mb - 0.00 in0.0 mm 0.04 in1.0 mm
05:30 PM 27.6°F-2.4°C 22.5°F-5.3°C 81% 17.3 mph ENE27.8 kmh ENE 28.8 mph46.3 kmh 29.89 in1012.2 mb - 0.00 in0.0 mm 0.04 in1.0 mm
05:35 PM 27.6°F-2.4°C 22.5°F-5.3°C 81% 19.6 mph E31.5 kmh E 27.6 mph44.4 kmh 29.89 in1012.2 mb - 0.00 in0.0 mm 0.04 in1.0 mm
05:40 PM 27.8°F-2.3°C 22.7°F-5.2°C 81% 17.3 mph E27.8 kmh E 28.8 mph46.3 kmh 29.89 in1012.2 mb - 0.00 in0.0 mm 0.04 in1.0 mm
05:45 PM 27.8°F-2.3°C 22.7°F-5.2°C 81% 13.8 mph E22.2 kmh E 16.1 mph25.9 kmh 29.89 in1012.2 mb - 0.00 in0.0 mm 0.04 in1.0 mm
05:50 PM 27.9°F-2.3°C 22.8°F-5.1°C 81% 12.7 mph E20.4 kmh E 19.6 mph31.5 kmh 29.89 in1012.2 mb - 0.00 in0.0 mm 0.04 in1.0 mm
05:55 PM 28.0°F-2.2°C 22.9°F-5.1°C 81% 13.8 mph E22.2 kmh E 19.6 mph31.5 kmh 29.89 in1012.2 mb - 0.00 in0.0 mm 0.04 in1.0 mm
06:00 PM 28.1°F-2.2°C 23.0°F-5.0°C 81% 12.7 mph E20.4 kmh E 13.8 mph22.2 kmh 29.89 in1012.2 mb - 0.00 in0.0 mm 0.04 in1.0 mm
06:05 PM 28.1°F-2.2°C 23.0°F-5.0°C 81% 11.5 mph E18.5 kmh E 18.4 mph29.6 kmh 29.89 in1012.2 mb - 0.00 in0.0 mm 0.04 in1.0 mm
06:10 PM 28.1°F-2.2°C 23.3°F-4.8°C 82% 11.5 mph E18.5 kmh E 16.1 mph25.9 kmh 29.89 in1012.2 mb - 0.00 in0.0 mm 0.04 in1.0 mm
06:15 PM 28.1°F-2.2°C 23.3°F-4.8°C 82% 9.2 mph E14.8 kmh E 11.5 mph18.5 kmh 29.89 in1012.2 mb - 0.00 in0.0 mm 0.04 in1.0 mm
06:20 PM 28.2°F-2.1°C 23.4°F-4.8°C 82% 11.5 mph E18.5 kmh E 12.7 mph20.4 kmh 29.89 in1012.2 mb - 0.00 in0.0 mm 0.04 in1.0 mm
06:25 PM 28.3°F-2.1°C 23.5°F-4.7°C 82% 5.8 mph E9.3 kmh E 10.4 mph16.7 kmh 29.88 in1011.9 mb - 0.00 in0.0 mm 0.04 in1.0 mm
06:30 PM 28.3°F-2.1°C 23.5°F-4.7°C 82% 12.7 mph E20.4 kmh E 20.7 mph33.3 kmh 29.88 in1011.9 mb - 0.00 in0.0 mm 0.04 in1.0 mm
06:35 PM 28.3°F-2.1°C 23.5°F-4.7°C 82% 15.0 mph E24.1 kmh E 19.6 mph31.5 kmh 29.88 in1011.9 mb - 0.00 in0.0 mm 0.04 in1.0 mm
06:40 PM 28.2°F-2.1°C 23.5°F-4.7°C 82% 12.7 mph E20.4 kmh E 16.1 mph25.9 kmh 29.88 in1011.9 mb - 0.00 in0.0 mm 0.04 in1.0 mm
06:45 PM 28.2°F-2.1°C 23.4°F-4.8°C 82% 19.6 mph E31.5 kmh E 27.6 mph44.4 kmh 29.88 in1011.9 mb - 0.00 in0.0 mm 0.04 in1.0 mm
06:50 PM 28.3°F-2.1°C 23.2°F-4.9°C 81% 15.0 mph E24.1 kmh E 19.6 mph31.5 kmh 29.87 in1011.5 mb - 0.00 in0.0 mm 0.04 in1.0 mm
06:55 PM 28.3°F-2.1°C 23.2°F-4.9°C 81% 19.6 mph E31.5 kmh E 26.5 mph42.6 kmh 29.88 in1011.9 mb - 0.00 in0.0 mm 0.04 in1.0 mm
07:00 PM 28.4°F-2.0°C 23.3°F-4.8°C 81% 16.1 mph ENE25.9 kmh ENE 25.3 mph40.7 kmh 29.88 in1011.9 mb - 0.00 in0.0 mm 0.04 in1.0 mm
07:05 PM 28.4°F-2.0°C 23.3°F-4.8°C 81% 19.6 mph E31.5 kmh E 19.6 mph31.5 kmh 29.87 in1011.5 mb - 0.00 in0.0 mm 0.04 in1.0 mm
07:10 PM 28.3°F-2.1°C 22.9°F-5.1°C 80% 13.8 mph E22.2 kmh E 17.3 mph27.8 kmh 29.88 in1011.9 mb - 0.00 in0.0 mm 0.04 in1.0 mm
07:15 PM 28.4°F-2.0°C 23.0°F-5.0°C 80% 21.9 mph E35.2 kmh E 26.5 mph42.6 kmh 29.88 in1011.9 mb - 0.00 in0.0 mm 0.04 in1.0 mm
07:20 PM 28.5°F-1.9°C 23.1°F-4.9°C 80% 15.0 mph E24.1 kmh E 23.0 mph37.0 kmh 29.88 in1011.9 mb - 0.00 in0.0 mm 0.04 in1.0 mm
07:25 PM 28.5°F-1.9°C 22.8°F-5.1°C 79% 21.9 mph E35.2 kmh E 28.8 mph46.3 kmh 29.88 in1011.9 mb - 0.00 in0.0 mm 0.04 in1.0 mm
07:30 PM 28.6°F-1.9°C 22.9°F-5.1°C 79% 11.5 mph E18.5 kmh E 12.7 mph20.4 kmh 29.88 in1011.9 mb - 0.00 in0.0 mm 0.04 in1.0 mm
07:35 PM 28.6°F-1.9°C 22.9°F-5.1°C 79% 15.0 mph E24.1 kmh E 19.6 mph31.5 kmh 29.88 in1011.9 mb - 0.00 in0.0 mm 0.04 in1.0 mm
07:40 PM 28.4°F-2.0°C 22.7°F-5.2°C 79% 13.8 mph E22.2 kmh E 23.0 mph37.0 kmh 29.88 in1011.9 mb - 0.00 in0.0 mm 0.04 in1.0 mm
07:45 PM 28.4°F-2.0°C 22.7°F-5.2°C 79% 17.3 mph E27.8 kmh E 19.6 mph31.5 kmh 29.88 in1011.9 mb - 0.00 in0.0 mm 0.04 in1.0 mm
07:50 PM 28.2°F-2.1°C 22.5°F-5.3°C 79% 16.1 mph E25.9 kmh E 19.6 mph31.5 kmh 29.87 in1011.5 mb - 0.00 in0.0 mm 0.04 in1.0 mm
07:55 PM 28.0°F-2.2°C 22.6°F-5.2°C 80% 18.4 mph E29.6 kmh E 26.5 mph42.6 kmh 29.87 in1011.5 mb - 0.00 in0.0 mm 0.04 in1.0 mm
08:00 PM 28.2°F-2.1°C 22.8°F-5.1°C 80% 18.4 mph E29.6 kmh E 28.8 mph46.3 kmh 29.86 in1011.2 mb - 0.00 in0.0 mm 0.04 in1.0 mm
08:05 PM 28.4°F-2.0°C 23.0°F-5.0°C 80% 25.3 mph E40.7 kmh E 35.7 mph57.5 kmh 29.86 in1011.2 mb - 0.00 in0.0 mm 0.04 in1.0 mm
08:10 PM 28.6°F-1.9°C 23.2°F-4.9°C 80% 24.2 mph E38.9 kmh E 36.8 mph59.2 kmh 29.85 in1010.8 mb - 0.00 in0.0 mm 0.04 in1.0 mm
08:15 PM 28.8°F-1.8°C 23.1°F-4.9°C 79% 23.0 mph E37.0 kmh E 34.5 mph55.5 kmh 29.86 in1011.2 mb - 0.00 in0.0 mm 0.04 in1.0 mm
08:20 PM 28.8°F-1.8°C 23.1°F-4.9°C 79% 20.7 mph E33.3 kmh E 23.0 mph37.0 kmh 29.86 in1011.2 mb - 0.00 in0.0 mm 0.04 in1.0 mm
08:25 PM 28.9°F-1.7°C 23.2°F-4.9°C 79% 20.7 mph E33.3 kmh E 32.2 mph51.8 kmh 29.86 in1011.2 mb - 0.00 in0.0 mm 0.04 in1.0 mm
08:30 PM 28.9°F-1.7°C 23.2°F-4.9°C 79% 16.1 mph E25.9 kmh E 21.9 mph35.2 kmh 29.87 in1011.5 mb - 0.00 in0.0 mm 0.04 in1.0 mm
08:35 PM 28.8°F-1.8°C 23.1°F-4.9°C 79% 17.3 mph ENE27.8 kmh ENE 20.7 mph33.3 kmh 29.86 in1011.2 mb - 0.00 in0.0 mm 0.04 in1.0 mm
08:40 PM 28.6°F-1.9°C 22.9°F-5.1°C 79% 20.7 mph E33.3 kmh E 26.5 mph42.6 kmh 29.86 in1011.2 mb - 0.00 in0.0 mm 0.04 in1.0 mm
08:45 PM 28.5°F-1.9°C 22.8°F-5.1°C 79% 18.4 mph E29.6 kmh E 24.2 mph38.9 kmh 29.86 in1011.2 mb - 0.00 in0.0 mm 0.04 in1.0 mm
08:50 PM 28.3°F-2.1°C 22.6°F-5.2°C 79% 23.0 mph E37.0 kmh E 29.9 mph48.1 kmh 29.85 in1010.8 mb - 0.00 in0.0 mm 0.04 in1.0 mm
08:55 PM 28.5°F-1.9°C 22.8°F-5.1°C 79% 19.6 mph E31.5 kmh E 28.8 mph46.3 kmh 29.86 in1011.2 mb - 0.00 in0.0 mm 0.04 in1.0 mm
09:00 PM 28.5°F-1.9°C 22.8°F-5.1°C 79% 17.3 mph E27.8 kmh E 20.7 mph33.3 kmh 29.86 in1011.2 mb - 0.00 in0.0 mm 0.04 in1.0 mm
09:05 PM 28.6°F-1.9°C 22.9°F-5.1°C 79% 20.7 mph E33.3 kmh E 32.2 mph51.8 kmh 29.85 in1010.8 mb - 0.00 in0.0 mm 0.04 in1.0 mm
09:10 PM 28.7°F-1.8°C 23.0°F-5.0°C 79% 19.6 mph E31.5 kmh E 26.5 mph42.6 kmh 29.84 in1010.5 mb - 0.00 in0.0 mm 0.04 in1.0 mm
09:15 PM 28.8°F-1.8°C 23.1°F-4.9°C 79% 16.1 mph E25.9 kmh E 23.0 mph37.0 kmh 29.85 in1010.8 mb - 0.00 in0.0 mm 0.04 in1.0 mm
09:20 PM 28.7°F-1.8°C 23.0°F-5.0°C 79% 19.6 mph E31.5 kmh E 26.5 mph42.6 kmh 29.85 in1010.8 mb - 0.00 in0.0 mm 0.04 in1.0 mm
09:25 PM 28.7°F-1.8°C 23.0°F-5.0°C 79% 17.3 mph E27.8 kmh E 26.5 mph42.6 kmh 29.84 in1010.5 mb - 0.00 in0.0 mm 0.04 in1.0 mm
09:30 PM 28.7°F-1.8°C 23.0°F-5.0°C 79% 15.0 mph E24.1 kmh E 23.0 mph37.0 kmh 29.84 in1010.5 mb - 0.00 in0.0 mm 0.04 in1.0 mm
09:35 PM 28.8°F-1.8°C 22.8°F-5.1°C 78% 18.4 mph E29.6 kmh E 20.7 mph33.3 kmh 29.84 in1010.5 mb - 0.00 in0.0 mm 0.04 in1.0 mm
09:40 PM 29.0°F-1.7°C 23.0°F-5.0°C 78% 16.1 mph E25.9 kmh E 21.9 mph35.2 kmh 29.85 in1010.8 mb - 0.00 in0.0 mm 0.04 in1.0 mm
09:45 PM 29.0°F-1.7°C 23.0°F-5.0°C 78% 20.7 mph E33.3 kmh E 33.4 mph53.8 kmh 29.85 in1010.8 mb - 0.00 in0.0 mm 0.04 in1.0 mm
09:50 PM 29.0°F-1.7°C 23.0°F-5.0°C 78% 11.5 mph E18.5 kmh E 19.6 mph31.5 kmh 29.85 in1010.8 mb - 0.00 in0.0 mm 0.04 in1.0 mm
09:55 PM 28.8°F-1.8°C 23.1°F-4.9°C 79% 12.7 mph E20.4 kmh E 17.3 mph27.8 kmh 29.85 in1010.8 mb - 0.00 in0.0 mm 0.04 in1.0 mm
10:00 PM 28.7°F-1.8°C 23.0°F-5.0°C 79% 10.4 mph E16.7 kmh E 13.8 mph22.2 kmh 29.84 in1010.5 mb - 0.00 in0.0 mm 0.04 in1.0 mm
10:05 PM 28.7°F-1.8°C 23.0°F-5.0°C 79% 12.7 mph E20.4 kmh E 20.7 mph33.3 kmh 29.84 in1010.5 mb - 0.00 in0.0 mm 0.04 in1.0 mm
10:10 PM 28.7°F-1.8°C 23.3°F-4.8°C 80% 13.8 mph E22.2 kmh E 25.3 mph40.7 kmh 29.84 in1010.5 mb - 0.00 in0.0 mm 0.04 in1.0 mm
10:15 PM 28.8°F-1.8°C 23.4°F-4.8°C 80% 17.3 mph E27.8 kmh E 21.9 mph35.2 kmh 29.84 in1010.5 mb - 0.00 in0.0 mm 0.04 in1.0 mm
10:20 PM 28.8°F-1.8°C 23.4°F-4.8°C 80% 15.0 mph E24.1 kmh E 24.2 mph38.9 kmh 29.84 in1010.5 mb - 0.00 in0.0 mm 0.04 in1.0 mm
10:25 PM 28.8°F-1.8°C 23.1°F-4.9°C 79% 16.1 mph E25.9 kmh E 21.9 mph35.2 kmh 29.84 in1010.5 mb - 0.00 in0.0 mm 0.04 in1.0 mm
10:30 PM 28.7°F-1.8°C 23.0°F-5.0°C 79% 17.3 mph E27.8 kmh E 29.9 mph48.1 kmh 29.84 in1010.5 mb - 0.00 in0.0 mm 0.04 in1.0 mm
10:35 PM 28.7°F-1.8°C 23.0°F-5.0°C 79% 19.6 mph E31.5 kmh E 32.2 mph51.8 kmh 29.84 in1010.5 mb - 0.00 in0.0 mm 0.04 in1.0 mm
10:40 PM 28.8°F-1.8°C 23.1°F-4.9°C 79% 23.0 mph E37.0 kmh E 29.9 mph48.1 kmh 29.84 in1010.5 mb - 0.00 in0.0 mm 0.04 in1.0 mm
10:45 PM 28.8°F-1.8°C 23.1°F-4.9°C 79% 19.6 mph E31.5 kmh E 21.9 mph35.2 kmh 29.84 in1010.5 mb - 0.00 in0.0 mm 0.04 in1.0 mm
10:50 PM 28.8°F-1.8°C 23.1°F-4.9°C 79% 13.8 mph E22.2 kmh E 28.8 mph46.3 kmh 29.84 in1010.5 mb - 0.00 in0.0 mm 0.04 in1.0 mm
10:55 PM 28.9°F-1.7°C 23.2°F-4.9°C 79% 23.0 mph E37.0 kmh E 28.8 mph46.3 kmh 29.83 in1010.2 mb - 0.00 in0.0 mm 0.04 in1.0 mm
11:00 PM 29.1°F-1.6°C 23.4°F-4.8°C 79% 18.4 mph E29.6 kmh E 27.6 mph44.4 kmh 29.83 in1010.2 mb - 0.00 in0.0 mm 0.04 in1.0 mm
11:05 PM 29.2°F-1.6°C 23.2°F-4.9°C 78% 19.6 mph E31.5 kmh E 27.6 mph44.4 kmh 29.83 in1010.2 mb - 0.00 in0.0 mm 0.04 in1.0 mm
11:10 PM 29.4°F-1.4°C 23.4°F-4.8°C 78% 17.3 mph E27.8 kmh E 29.9 mph48.1 kmh 29.83 in1010.2 mb - 0.00 in0.0 mm 0.04 in1.0 mm
11:15 PM 29.3°F-1.5°C 23.3°F-4.8°C 78% 23.0 mph E37.0 kmh E 29.9 mph48.1 kmh 29.83 in1010.2 mb - 0.00 in0.0 mm 0.04 in1.0 mm
11:20 PM 29.1°F-1.6°C 23.1°F-4.9°C 78% 15.0 mph E24.1 kmh E 24.2 mph38.9 kmh 29.84 in1010.5 mb - 0.00 in0.0 mm 0.04 in1.0 mm
11:25 PM 28.9°F-1.7°C 22.9°F-5.1°C 78% 18.4 mph E29.6 kmh E 34.5 mph55.5 kmh 29.83 in1010.2 mb - 0.00 in0.0 mm 0.04 in1.0 mm
11:30 PM 29.1°F-1.6°C 23.1°F-4.9°C 78% 20.7 mph E33.3 kmh E 26.5 mph42.6 kmh 29.83 in1010.2 mb - 0.00 in0.0 mm 0.04 in1.0 mm
11:35 PM 29.4°F-1.4°C 23.4°F-4.8°C 78% 23.0 mph E37.0 kmh E 31.1 mph50.1 kmh 29.83 in1010.2 mb - 0.00 in0.0 mm 0.04 in1.0 mm
11:40 PM 29.8°F-1.2°C 23.7°F-4.6°C 78% 18.4 mph ENE29.6 kmh ENE 19.6 mph31.5 kmh 29.82 in1009.8 mb - 0.00 in0.0 mm 0.04 in1.0 mm
11:45 PM 30.0°F-1.1°C 24.0°F-4.4°C 78% 21.9 mph E35.2 kmh E 31.1 mph50.1 kmh 29.83 in1010.2 mb - 0.00 in0.0 mm 0.04 in1.0 mm
11:50 PM 30.1°F-1.1°C 24.1°F-4.4°C 78% 17.3 mph E27.8 kmh E 29.9 mph48.1 kmh 29.83 in1010.2 mb - 0.00 in0.0 mm 0.04 in1.0 mm
11:55 PM 30.1°F-1.1°C 24.1°F-4.4°C 78% 19.6 mph E31.5 kmh E 26.5 mph42.6 kmh 29.83 in1010.2 mb - 0.00 in0.0 mm 0.04 in1.0 mm